createdAt,value
2019-04-28T00:01:36.534Z,8.90
2019-04-28T00:04:23.609Z,10.73
2019-04-28T00:07:11.943Z,13.33
2019-04-28T00:10:01.001Z,11.03
2019-04-28T00:12:48.357Z,8.90
2019-04-28T00:15:35.601Z,9.53
2019-04-28T00:18:23.701Z,11.97
2019-04-28T00:21:24.159Z,10.53
2019-04-28T00:24:28.229Z,10.27
2019-04-28T00:27:17.065Z,9.07
2019-04-28T00:30:06.185Z,11.83
2019-04-28T00:32:53.676Z,8.63
2019-04-28T00:35:41.844Z,9.03
2019-04-28T00:38:29.177Z,7.37
2019-04-28T00:41:16.125Z,11.23
2019-04-28T00:44:03.109Z,9.27
2019-04-28T00:46:51.169Z,8.97
2019-04-28T00:49:47.862Z,8.67
2019-04-28T00:52:35.161Z,10.87
2019-04-28T00:55:22.705Z,13.63
2019-04-28T00:58:10.921Z,12.43
2019-04-28T01:01:01.456Z,12.03
2019-04-28T01:03:48.565Z,13.97
2019-04-28T01:06:36.045Z,22.90
2019-04-28T01:09:23.478Z,16.00
2019-04-28T01:12:11.173Z,11.87
2019-04-28T01:15:01.629Z,16.90
2019-04-28T01:18:02.842Z,13.67
2019-04-28T01:20:50.254Z,14.13
2019-04-28T01:23:37.481Z,14.07
2019-04-28T01:26:24.880Z,18.00
2019-04-28T01:29:12.065Z,19.63
2019-04-28T01:32:07.650Z,19.17
2019-04-28T01:34:55.149Z,24.73
2019-04-28T01:37:42.114Z,23.17
2019-04-28T01:40:30.458Z,19.40
2019-04-28T01:43:19.606Z,18.00
2019-04-28T01:46:06.922Z,18.83
2019-04-28T01:48:54.145Z,19.37
2019-04-28T01:51:41.571Z,20.93
2019-04-28T01:54:30.250Z,20.20
2019-04-28T01:57:17.398Z,17.27
2019-04-28T02:00:21.410Z,19.33
2019-04-28T02:02:55.886Z,13.80
2019-04-28T02:05:43.206Z,11.37
2019-04-28T02:08:30.448Z,14.60
2019-04-28T02:11:17.750Z,15.23
2019-04-28T02:14:05.769Z,12.93
2019-04-28T02:16:53.184Z,18.93
2019-04-28T02:19:40.918Z,13.07
2019-04-28T02:22:40.143Z,16.00
2019-04-28T02:25:27.669Z,15.57
2019-04-28T02:28:14.889Z,14.30
2019-04-28T02:31:02.449Z,14.30
2019-04-28T02:33:50.504Z,15.23
2019-04-28T02:36:40.558Z,16.90
2019-04-28T02:39:27.207Z,13.87
2019-04-28T02:42:14.598Z,15.57
2019-04-28T02:45:01.978Z,12.33
2019-04-28T02:47:52.244Z,14.40
2019-04-28T02:50:46.999Z,15.23
2019-04-28T02:53:37.374Z,19.17
2019-04-28T02:56:24.553Z,14.83
2019-04-28T02:59:11.738Z,17.03
2019-04-28T03:02:00.699Z,15.20
2019-04-28T03:04:50.685Z,15.33
2019-04-28T03:07:37.318Z,17.23
2019-04-28T03:10:24.355Z,18.27
2019-04-28T03:13:13.442Z,16.20
2019-04-28T03:16:01.557Z,22.00
2019-04-28T03:18:51.386Z,20.77
2019-04-28T03:21:38.145Z,15.80
2019-04-28T03:24:25.414Z,18.03
2019-04-28T03:27:34.816Z,18.77
2019-04-28T03:30:43.837Z,17.33
2019-04-28T03:33:34.201Z,17.63
2019-04-28T03:36:23.095Z,20.40
2019-04-28T03:39:10.864Z,20.47
2019-04-28T03:41:57.136Z,19.53
2019-04-28T03:44:44.114Z,20.80
2019-04-28T03:47:31.691Z,20.47
2019-04-28T03:50:20.232Z,21.63
2019-04-28T03:53:07.838Z,19.43
2019-04-28T03:55:55.081Z,20.57
2019-04-28T03:58:42.454Z,20.13
2019-04-28T04:01:30.470Z,21.57
2019-04-28T04:04:17.882Z,16.37
2019-04-28T04:07:05.081Z,22.50
2019-04-28T04:10:17.502Z,22.80
2019-04-28T04:13:20.123Z,22.42
2019-04-28T04:16:14.485Z,20.60
2019-04-28T04:19:02.787Z,20.87
2019-04-28T04:21:52.657Z,15.53
2019-04-28T04:24:40.354Z,20.47
2019-04-28T04:27:30.679Z,15.73
2019-04-28T04:30:16.859Z,16.57
2019-04-28T04:33:04.181Z,22.13
2019-04-28T04:35:51.896Z,16.37
2019-04-28T04:38:43.317Z,18.13
2019-04-28T04:41:30.406Z,14.23
2019-04-28T04:44:17.147Z,15.70
2019-04-28T04:47:04.474Z,16.70
2019-04-28T04:49:51.696Z,20.10
2019-04-28T04:52:40.222Z,15.47
2019-04-28T04:55:27.975Z,18.20
2019-04-28T04:58:14.894Z,12.37
2019-04-28T05:01:10.623Z,17.83
2019-04-28T05:04:00.882Z,15.13
2019-04-28T05:06:49.595Z,20.30
2019-04-28T05:09:37.029Z,16.23
2019-04-28T05:12:24.145Z,15.47
2019-04-28T05:15:11.405Z,16.80
2019-04-28T05:18:00.270Z,14.03
2019-04-28T05:20:47.634Z,13.00
2019-04-28T05:24:00.421Z,18.07
2019-04-28T05:26:49.740Z,13.00
2019-04-28T05:29:37.138Z,16.17
2019-04-28T05:32:24.326Z,13.07
2019-04-28T05:35:11.301Z,13.73
2019-04-28T05:37:59.776Z,19.10
2019-04-28T05:40:47.183Z,15.83
2019-04-28T05:43:34.678Z,15.23
2019-04-28T05:46:22.124Z,15.93
2019-04-28T05:49:15.325Z,17.17
2019-04-28T05:52:09.634Z,14.23
2019-04-28T05:55:04.126Z,11.77
2019-04-28T05:58:13.623Z,15.10
2019-04-28T06:01:10.280Z,14.00
2019-04-28T06:03:57.699Z,16.30
2019-04-28T06:06:46.579Z,16.03
2019-04-28T06:09:40.949Z,12.50
2019-04-28T06:12:27.941Z,14.97
2019-04-28T06:15:15.382Z,15.60
2019-04-28T06:18:02.350Z,15.87
2019-04-28T06:20:49.860Z,16.63
2019-04-28T06:23:37.261Z,14.57
2019-04-28T06:26:24.773Z,16.07
2019-04-28T06:29:11.833Z,16.47
2019-04-28T06:31:59.333Z,14.60
2019-04-28T06:34:46.781Z,14.30
2019-04-28T06:37:34.052Z,13.83
2019-04-28T06:40:21.353Z,14.47
2019-04-28T06:43:08.817Z,18.83
2019-04-28T06:45:55.764Z,14.80
2019-04-28T06:48:43.369Z,14.10
2019-04-28T06:51:30.846Z,9.07
2019-04-28T06:54:18.286Z,12.53
2019-04-28T06:57:05.409Z,18.93
2019-04-28T06:59:52.826Z,13.33
2019-04-28T07:02:40.021Z,18.23
2019-04-28T07:05:26.974Z,14.73
2019-04-28T07:08:14.506Z,13.53
2019-04-28T07:11:01.734Z,15.63
2019-04-28T07:13:48.632Z,16.80
2019-04-28T07:16:35.937Z,11.60
2019-04-28T07:19:23.343Z,17.17
2019-04-28T07:22:16.314Z,14.73
2019-04-28T07:25:03.997Z,11.00
2019-04-28T07:27:51.007Z,12.40
2019-04-28T07:30:40.186Z,15.30
2019-04-28T07:33:35.773Z,13.03
2019-04-28T07:36:16.493Z,16.60
2019-04-28T07:39:05.626Z,15.90
2019-04-28T07:41:52.930Z,15.93
2019-04-28T07:44:40.188Z,19.87
2019-04-28T07:47:27.397Z,12.63
2019-04-28T07:50:15.033Z,15.23
2019-04-28T07:53:18.869Z,17.27
2019-04-28T07:56:06.101Z,15.97
2019-04-28T07:58:53.562Z,20.00
2019-04-28T08:01:41.009Z,13.70
2019-04-28T08:04:28.196Z,14.70
2019-04-28T08:07:15.237Z,16.87
2019-04-28T08:10:02.202Z,12.93
2019-04-28T08:12:49.727Z,12.13
2019-04-28T08:15:36.996Z,15.50
2019-04-28T08:18:24.186Z,16.40
2019-04-28T08:21:11.809Z,16.70
2019-04-28T08:23:59.212Z,21.70
2019-04-28T08:26:46.680Z,13.77
2019-04-28T08:29:34.187Z,14.30
2019-04-28T08:32:28.116Z,17.50
2019-04-28T08:35:15.638Z,18.17
2019-04-28T08:38:02.591Z,15.23
2019-04-28T08:40:49.517Z,15.63
2019-04-28T08:43:36.818Z,23.07
2019-04-28T08:46:23.754Z,15.90
2019-04-28T08:49:10.981Z,15.00
2019-04-28T08:51:58.057Z,16.03
2019-04-28T08:54:45.350Z,20.40
2019-04-28T08:57:32.821Z,17.43
2019-04-28T09:00:19.925Z,14.87
2019-04-28T09:03:07.033Z,14.60
2019-04-28T09:05:54.237Z,15.97
2019-04-28T09:08:41.271Z,19.00
2019-04-28T09:11:28.588Z,19.27
2019-04-28T09:14:15.861Z,20.27
2019-04-28T09:17:03.136Z,14.97
2019-04-28T09:19:50.377Z,11.47
2019-04-28T09:22:38.002Z,17.10
2019-04-28T09:25:25.470Z,13.47
2019-04-28T09:28:13.055Z,10.97
2019-04-28T09:31:00.478Z,12.70
2019-04-28T09:33:47.677Z,19.57
2019-04-28T09:36:34.914Z,15.33
2019-04-28T09:39:42.905Z,12.20
2019-04-28T09:42:49.948Z,15.43
2019-04-28T09:45:59.085Z,10.67
2019-04-28T09:48:46.201Z,13.90
2019-04-28T09:51:33.521Z,12.20
2019-04-28T09:54:20.757Z,13.47
2019-04-28T09:57:07.690Z,10.73
2019-04-28T09:59:55.139Z,9.20
2019-04-28T10:02:42.366Z,9.73
2019-04-28T10:05:29.569Z,8.10
2019-04-28T10:08:17.006Z,12.97
2019-04-28T10:11:04.713Z,11.97
2019-04-28T10:13:52.214Z,10.87
2019-04-28T10:16:39.658Z,10.43
2019-04-28T10:19:26.993Z,11.80
2019-04-28T10:22:13.953Z,10.60
2019-04-28T10:25:01.197Z,6.13
2019-04-28T10:27:48.161Z,7.30
2019-04-28T10:30:35.609Z,6.17
2019-04-28T10:33:22.997Z,10.23
2019-04-28T10:36:10.218Z,7.67
2019-04-28T10:39:18.735Z,9.50
2019-04-28T10:42:06.162Z,13.00
2019-04-28T10:44:53.641Z,9.93
2019-04-28T10:47:40.918Z,7.30
2019-04-28T10:50:28.093Z,8.07
2019-04-28T10:53:15.610Z,8.00
2019-04-28T10:56:02.849Z,7.20
2019-04-28T10:58:51.679Z,9.13
2019-04-28T11:01:38.885Z,9.50
2019-04-28T11:05:08.289Z,11.27
2019-04-28T11:07:49.690Z,7.50
2019-04-28T11:10:37.012Z,8.63
2019-04-28T11:13:24.233Z,6.03
2019-04-28T11:16:14.214Z,8.53
2019-04-28T11:19:01.685Z,8.70
2019-04-28T11:21:48.913Z,8.87
2019-04-28T11:24:36.166Z,6.87
2019-04-28T11:27:24.385Z,9.93
2019-04-28T11:30:12.550Z,7.20
2019-04-28T11:33:18.817Z,8.17
2019-04-28T11:36:06.901Z,8.40
2019-04-28T11:38:54.125Z,10.63
2019-04-28T11:41:41.733Z,7.70
2019-04-28T11:44:28.984Z,7.37
2019-04-28T11:47:18.742Z,10.90
2019-04-28T11:50:06.088Z,8.63
2019-04-28T11:52:53.506Z,10.20
2019-04-28T11:55:41.061Z,7.93
2019-04-28T11:58:28.069Z,5.37
2019-04-28T12:01:16.781Z,8.70
2019-04-28T12:04:05.798Z,10.37
2019-04-28T12:06:53.095Z,6.70
2019-04-28T12:09:46.017Z,8.20
2019-04-28T12:12:58.441Z,7.80
2019-04-28T12:15:56.380Z,10.27
2019-04-28T12:18:58.141Z,10.33
2019-04-28T12:21:45.272Z,8.50
2019-04-28T12:24:32.688Z,13.27
2019-04-28T12:27:20.161Z,9.47
2019-04-28T12:30:07.861Z,12.40
2019-04-28T12:32:55.075Z,10.20
2019-04-28T12:35:47.887Z,10.07
2019-04-28T12:38:31.408Z,13.40
2019-04-28T12:41:18.440Z,9.27
2019-04-28T12:44:06.046Z,10.10
2019-04-28T12:46:53.603Z,6.80
2019-04-28T12:49:48.010Z,9.13
2019-04-28T12:52:35.257Z,7.70
2019-04-28T12:55:22.692Z,8.83
2019-04-28T12:58:10.033Z,6.07
2019-04-28T13:01:07.469Z,5.07
2019-04-28T13:04:14.021Z,5.90
2019-04-28T13:07:10.693Z,5.50
2019-04-28T13:09:57.763Z,7.53
2019-04-28T13:12:44.950Z,5.77
2019-04-28T13:15:32.161Z,5.87
2019-04-28T13:18:19.147Z,6.60
2019-04-28T13:21:06.575Z,7.20
2019-04-28T13:23:53.533Z,5.93
2019-04-28T13:26:40.777Z,7.47
2019-04-28T13:29:27.706Z,7.50
2019-04-28T13:32:15.021Z,5.07
2019-04-28T13:35:02.324Z,6.73
2019-04-28T13:37:49.505Z,7.47
2019-04-28T13:40:38.585Z,5.70
2019-04-28T13:43:25.995Z,10.57
2019-04-28T13:46:13.322Z,6.60
2019-04-28T13:49:01.746Z,9.07
2019-04-28T13:51:49.171Z,9.83
2019-04-28T13:54:36.697Z,7.50
2019-04-28T13:57:23.645Z,8.60
2019-04-28T14:00:13.138Z,9.17
2019-04-28T14:03:08.097Z,9.47
2019-04-28T14:05:59.234Z,11.33
2019-04-28T14:08:46.176Z,8.20
2019-04-28T14:11:33.349Z,9.97
2019-04-28T14:14:20.581Z,6.90
2019-04-28T14:17:07.809Z,6.77
2019-04-28T14:19:55.262Z,6.33
2019-04-28T14:22:42.533Z,9.17
2019-04-28T14:25:29.634Z,8.30
2019-04-28T14:28:17.118Z,7.93
2019-04-28T14:31:04.660Z,6.80
2019-04-28T14:33:52.231Z,8.67
2019-04-28T14:36:42.159Z,9.07
2019-04-28T14:39:28.371Z,6.33
2019-04-28T14:42:15.525Z,6.17
2019-04-28T14:45:03.187Z,5.87
2019-04-28T14:47:50.353Z,4.43
2019-04-28T14:50:37.881Z,7.23
2019-04-28T14:53:25.066Z,5.60
2019-04-28T14:56:12.406Z,7.67
2019-04-28T14:58:59.697Z,8.03
2019-04-28T15:02:09.447Z,6.47
2019-04-28T15:05:18.640Z,7.60
2019-04-28T15:08:24.988Z,5.97
2019-04-28T15:11:28.510Z,6.03
2019-04-28T15:14:15.696Z,5.73
2019-04-28T15:17:03.537Z,5.67
2019-04-28T15:19:50.665Z,4.87
2019-04-28T15:22:37.861Z,7.73
2019-04-28T15:25:24.861Z,4.93
2019-04-28T15:28:11.889Z,7.03
2019-04-28T15:30:58.809Z,6.97
2019-04-28T15:33:46.038Z,6.73
2019-04-28T15:36:32.934Z,7.63
2019-04-28T15:39:20.198Z,8.20
2019-04-28T15:42:07.403Z,8.43
2019-04-28T15:44:54.690Z,6.53
2019-04-28T15:47:42.202Z,6.37
2019-04-28T15:50:29.441Z,10.27
2019-04-28T15:53:16.393Z,7.17
2019-04-28T15:56:25.582Z,6.17
2019-04-28T15:59:12.993Z,5.43
2019-04-28T16:02:00.207Z,7.17
2019-04-28T16:04:47.431Z,8.77
2019-04-28T16:07:34.510Z,6.80
2019-04-28T16:10:21.837Z,6.03
2019-04-28T16:13:09.029Z,5.10
2019-04-28T16:15:56.511Z,7.57
2019-04-28T16:18:43.950Z,7.80
2019-04-28T16:21:31.165Z,6.27
2019-04-28T16:24:18.362Z,5.10
2019-04-28T16:27:07.374Z,8.47
2019-04-28T16:29:54.825Z,4.83
2019-04-28T16:32:42.306Z,7.40
2019-04-28T16:35:29.549Z,5.70
2019-04-28T16:38:16.630Z,4.60
2019-04-28T16:41:03.905Z,7.27
2019-04-28T16:43:51.117Z,6.67
2019-04-28T16:46:39.160Z,8.03
2019-04-28T16:49:26.733Z,5.33
2019-04-28T16:52:14.012Z,8.33
2019-04-28T16:55:15.030Z,5.90
2019-04-28T16:58:19.149Z,6.90
2019-04-28T17:01:24.405Z,10.27
2019-04-28T17:04:11.954Z,6.73
2019-04-28T17:06:59.313Z,5.70
2019-04-28T17:09:46.509Z,7.80
2019-04-28T17:12:33.779Z,6.07
2019-04-28T17:15:21.193Z,5.27
2019-04-28T17:18:08.545Z,7.87
2019-04-28T17:20:55.768Z,6.13
2019-04-28T17:23:43.254Z,8.20
2019-04-28T17:26:30.317Z,5.90
2019-04-28T17:29:17.765Z,6.93
2019-04-28T17:32:05.241Z,6.57
2019-04-28T17:34:52.493Z,6.10
2019-04-28T17:37:40.017Z,4.63
2019-04-28T17:40:28.330Z,6.63
2019-04-28T17:43:15.752Z,5.93
2019-04-28T17:46:03.454Z,6.23
2019-04-28T17:48:55.582Z,6.00
2019-04-28T17:51:43.005Z,5.70
2019-04-28T17:54:30.433Z,5.43
2019-04-28T17:57:17.458Z,5.23
2019-04-28T18:00:11.397Z,5.43
2019-04-28T18:03:07.437Z,5.30
2019-04-28T18:05:59.478Z,8.00
2019-04-28T18:08:46.926Z,5.90
2019-04-28T18:11:34.549Z,6.57
2019-04-28T18:14:21.944Z,6.10
2019-04-28T18:17:27.073Z,7.97
2019-04-28T18:20:14.526Z,7.27
2019-04-28T18:23:01.802Z,6.30
2019-04-28T18:25:49.684Z,6.77
2019-04-28T18:28:36.931Z,7.03
2019-04-28T18:31:46.117Z,6.57
2019-04-28T18:34:52.181Z,8.40
2019-04-28T18:38:07.859Z,4.90
2019-04-28T18:41:17.560Z,4.93
2019-04-28T18:44:24.026Z,5.40
2019-04-28T18:47:11.441Z,5.23
2019-04-28T18:49:58.639Z,5.60
2019-04-28T18:52:46.246Z,6.43
2019-04-28T18:55:33.286Z,6.93
2019-04-28T18:58:20.545Z,4.20
2019-04-28T19:01:25.278Z,5.67
2019-04-28T19:04:12.692Z,6.17
2019-04-28T19:07:05.414Z,5.60
2019-04-28T19:09:58.622Z,6.00
2019-04-28T19:13:05.401Z,4.30
2019-04-28T19:16:14.705Z,4.50
2019-04-28T19:19:05.350Z,5.77
2019-04-28T19:21:56.293Z,9.20
2019-04-28T19:24:43.842Z,12.30
2019-04-28T19:27:30.777Z,6.50
2019-04-28T19:30:18.203Z,7.63
2019-04-28T19:33:05.438Z,8.37
2019-04-28T19:35:52.822Z,6.70
2019-04-28T19:38:40.073Z,5.67
2019-04-28T19:41:27.221Z,7.63
2019-04-28T19:44:14.250Z,6.17
2019-04-28T19:47:01.238Z,7.10
2019-04-28T19:49:48.191Z,5.60
2019-04-28T19:52:38.691Z,7.70
2019-04-28T19:55:30.087Z,6.73
2019-04-28T19:58:30.293Z,9.47
2019-04-28T20:01:28.710Z,9.53
2019-04-28T20:04:16.054Z,5.33
2019-04-28T20:07:03.634Z,10.60
2019-04-28T20:09:50.818Z,4.87
2019-04-28T20:12:38.344Z,5.73
2019-04-28T20:15:25.504Z,7.27
2019-04-28T20:18:12.456Z,5.07
2019-04-28T20:20:59.725Z,6.40
2019-04-28T20:23:47.033Z,7.33
2019-04-28T20:26:34.417Z,6.47
2019-04-28T20:29:23.234Z,6.27
2019-04-28T20:32:10.641Z,6.07
2019-04-28T20:34:57.830Z,11.20
2019-04-28T20:37:51.886Z,11.30
2019-04-28T20:40:47.065Z,9.90
2019-04-28T20:43:34.722Z,9.93
2019-04-28T20:46:22.178Z,9.03
2019-04-28T20:49:09.610Z,9.37
2019-04-28T20:51:56.970Z,9.10
2019-04-28T20:54:44.186Z,6.40
2019-04-28T20:57:31.645Z,6.67
2019-04-28T21:00:18.909Z,9.20
2019-04-28T21:03:06.522Z,6.87
2019-04-28T21:05:53.728Z,9.17
2019-04-28T21:08:40.750Z,12.40
2019-04-28T21:11:28.393Z,10.93
2019-04-28T21:14:15.862Z,11.57
2019-04-28T21:17:03.301Z,11.43
2019-04-28T21:19:50.605Z,9.53
2019-04-28T21:22:37.966Z,12.60
2019-04-28T21:25:24.957Z,11.20
2019-04-28T21:28:12.137Z,7.87
2019-04-28T21:30:59.537Z,8.40
2019-04-28T21:33:46.748Z,8.00
2019-04-28T21:36:33.973Z,8.20
2019-04-28T21:39:21.330Z,10.87
2019-04-28T21:42:12.226Z,9.30
2019-04-28T21:45:09.450Z,8.33
2019-04-28T21:47:56.722Z,8.10
2019-04-28T21:50:43.981Z,7.80
2019-04-28T21:53:30.958Z,9.23
2019-04-28T21:56:17.961Z,6.40
2019-04-28T21:59:05.265Z,8.73
2019-04-28T22:01:52.505Z,9.70
2019-04-28T22:04:39.743Z,10.57
2019-04-28T22:07:27.354Z,11.53
2019-04-28T22:10:14.629Z,9.33
2019-04-28T22:13:02.094Z,11.07
2019-04-28T22:15:49.746Z,6.30
2019-04-28T22:18:37.409Z,7.20
2019-04-28T22:21:24.624Z,8.00
2019-04-28T22:24:34.029Z,11.17
2019-04-28T22:27:33.829Z,10.60
2019-04-28T22:30:20.912Z,11.50
2019-04-28T22:33:08.302Z,9.37
2019-04-28T22:35:55.545Z,7.77
2019-04-28T22:38:42.782Z,11.17
2019-04-28T22:41:30.058Z,10.30
2019-04-28T22:44:17.353Z,8.73
2019-04-28T22:47:04.829Z,8.37
2019-04-28T22:49:52.155Z,8.43
2019-04-28T22:52:39.345Z,8.77
2019-04-28T22:55:27.145Z,11.40
2019-04-28T22:58:21.574Z,11.17
2019-04-28T23:01:16.658Z,6.83
2019-04-28T23:04:23.352Z,6.97
2019-04-28T23:07:10.685Z,7.70
2019-04-28T23:09:57.836Z,8.07
2019-04-28T23:12:44.978Z,9.33
2019-04-28T23:15:32.137Z,6.80
2019-04-28T23:18:19.596Z,8.37
2019-04-28T23:21:21.453Z,8.47
2019-04-28T23:24:08.849Z,6.67
2019-04-28T23:26:56.068Z,8.43
2019-04-28T23:29:43.709Z,6.17
2019-04-28T23:32:31.793Z,6.10
2019-04-28T23:35:18.842Z,8.60
2019-04-28T23:38:06.166Z,7.07
2019-04-28T23:41:13.314Z,7.50
2019-04-28T23:44:00.789Z,8.63
2019-04-28T23:47:00.770Z,8.93
2019-04-28T23:49:47.769Z,7.50
2019-04-28T23:52:40.478Z,7.90
2019-04-28T23:55:27.496Z,6.47
2019-04-28T23:58:14.910Z,8.07
